createdAt,value
2023-04-25T00:02:00.876Z,11.80
2023-04-25T00:04:31.011Z,11.70
2023-04-25T00:06:59.680Z,11.70
2023-04-25T00:09:28.995Z,11.60
2023-04-25T00:11:57.291Z,11.60
2023-04-25T00:14:25.478Z,11.60
2023-04-25T00:16:55.250Z,11.60
2023-04-25T00:19:23.580Z,11.50
2023-04-25T00:21:51.749Z,11.50
2023-04-25T00:24:19.912Z,11.40
2023-04-25T00:26:48.660Z,11.30
2023-04-25T00:29:17.139Z,11.30
2023-04-25T00:31:45.515Z,11.20
2023-04-25T00:34:15.084Z,11.20
2023-04-25T00:36:43.309Z,11.10
2023-04-25T00:39:11.607Z,11.00
2023-04-25T00:41:40.566Z,11.00
2023-04-25T00:44:12.310Z,10.90
2023-04-25T00:46:41.755Z,10.80
2023-04-25T00:49:09.963Z,10.80
2023-04-25T00:51:39.838Z,10.70
2023-04-25T00:54:08.081Z,10.60
2023-04-25T00:56:36.327Z,10.60
2023-04-25T00:59:04.612Z,10.50
2023-04-25T01:01:33.064Z,10.50
2023-04-25T01:04:02.260Z,10.50
2023-04-25T01:06:31.250Z,10.50
2023-04-25T01:09:01.561Z,10.50
2023-04-25T01:11:29.845Z,10.50
2023-04-25T01:13:58.126Z,10.50
2023-04-25T01:16:26.655Z,10.40
2023-04-25T01:18:54.987Z,10.40
2023-04-25T01:21:27.375Z,10.30
2023-04-25T01:23:56.165Z,10.20
2023-04-25T01:26:25.171Z,10.20
2023-04-25T01:28:53.935Z,10.10
2023-04-25T01:31:22.676Z,10.10
2023-04-25T01:33:51.131Z,10.00
2023-04-25T01:36:20.528Z,10.00
2023-04-25T01:38:50.466Z,10.00
2023-04-25T01:41:19.121Z,9.90
2023-04-25T01:43:47.869Z,9.90
2023-04-25T01:46:16.329Z,9.80
2023-04-25T01:48:45.571Z,9.70
2023-04-25T01:51:14.289Z,9.70
2023-04-25T01:53:42.721Z,9.70
2023-04-25T01:56:12.427Z,9.70
2023-04-25T01:58:41.551Z,9.60
2023-04-25T02:01:21.580Z,9.60
2023-04-25T02:04:04.682Z,9.50
2023-04-25T02:06:37.366Z,9.50
2023-04-25T02:09:05.757Z,9.40
2023-04-25T02:11:35.411Z,9.40
2023-04-25T02:14:21.595Z,9.40
2023-04-25T02:17:13.736Z,9.30
2023-04-25T02:19:42.256Z,9.40
2023-04-25T02:22:11.571Z,9.40
2023-04-25T02:24:39.853Z,9.40
2023-04-25T02:27:09.743Z,9.40
2023-04-25T02:29:38.639Z,9.50
2023-04-25T02:32:06.906Z,9.60
2023-04-25T02:34:35.155Z,9.70
2023-04-25T02:37:03.540Z,9.80
2023-04-25T02:39:31.713Z,10.00
2023-04-25T02:41:59.964Z,10.10
2023-04-25T02:44:32.809Z,10.10
2023-04-25T02:47:01.099Z,10.20
2023-04-25T02:49:29.311Z,10.30
2023-04-25T02:51:57.611Z,10.30
2023-04-25T02:54:26.044Z,10.30
2023-04-25T02:56:54.293Z,10.30
2023-04-25T02:59:27.895Z,10.40
2023-04-25T03:01:57.649Z,10.40
2023-04-25T03:04:26.560Z,10.40
2023-04-25T03:06:55.202Z,10.30
2023-04-25T03:09:23.981Z,10.30
2023-04-25T03:11:53.766Z,10.30
2023-04-25T03:14:22.282Z,10.30
2023-04-25T03:16:50.528Z,10.40
2023-04-25T03:19:21.464Z,10.40
2023-04-25T03:21:50.490Z,10.40
2023-04-25T03:24:19.441Z,10.40
2023-04-25T03:26:47.699Z,10.40
2023-04-25T03:29:15.888Z,10.40
2023-04-25T03:31:45.551Z,10.30
2023-04-25T03:34:15.271Z,10.40
2023-04-25T03:36:45.028Z,10.40
2023-04-25T03:39:13.801Z,10.40
2023-04-25T03:41:50.297Z,10.30
2023-04-25T03:44:20.273Z,10.50
2023-04-25T03:46:48.481Z,10.50
2023-04-25T03:49:19.254Z,10.70
2023-04-25T03:52:04.833Z,10.80
2023-04-25T03:54:40.157Z,10.90
2023-04-25T03:57:15.001Z,10.90
2023-04-25T03:59:45.253Z,11.00
2023-04-25T04:02:16.132Z,11.10
2023-04-25T04:04:45.673Z,11.20
2023-04-25T04:07:16.173Z,11.30
2023-04-25T04:09:48.060Z,11.30
2023-04-25T04:12:22.776Z,11.40
2023-04-25T04:14:51.104Z,11.40
2023-04-25T04:17:19.343Z,11.50
2023-04-25T04:19:47.671Z,11.50
2023-04-25T04:22:21.619Z,11.50
2023-04-25T04:24:51.078Z,11.50
2023-04-25T04:27:31.158Z,11.50
2023-04-25T04:30:19.277Z,11.50
2023-04-25T04:32:55.818Z,11.50
2023-04-25T04:35:24.419Z,11.60
2023-04-25T04:37:55.696Z,11.60
2023-04-25T04:40:26.619Z,11.60
2023-04-25T04:43:09.930Z,11.50
2023-04-25T04:45:57.313Z,11.40
2023-04-25T04:48:57.492Z,11.60
2023-04-25T04:51:41.516Z,11.50
2023-04-25T04:54:18.769Z,11.60
2023-04-25T04:57:06.958Z,11.60
2023-04-25T04:59:46.136Z,11.60
2023-04-25T05:02:49.364Z,11.60
2023-04-25T05:05:43.165Z,11.70
2023-04-25T05:08:26.650Z,11.80
2023-04-25T05:11:31.637Z,11.90
2023-04-25T05:14:24.298Z,11.90
2023-04-25T05:17:31.188Z,11.90
2023-04-25T05:20:02.737Z,12.00
2023-04-25T05:22:49.314Z,12.00
2023-04-25T05:25:36.191Z,12.00
2023-04-25T05:28:14.176Z,12.00
2023-04-25T05:30:50.402Z,12.00
2023-04-25T05:33:22.358Z,12.00
2023-04-25T05:35:51.181Z,12.00
2023-04-25T05:38:19.510Z,12.00
2023-04-25T05:41:13.843Z,12.00
2023-04-25T05:43:51.026Z,12.10
2023-04-25T05:46:51.968Z,12.00
2023-04-25T05:49:32.468Z,12.10
2023-04-25T05:52:00.784Z,12.00
2023-04-25T05:54:43.488Z,12.00
2023-04-25T05:57:21.706Z,11.90
2023-04-25T05:59:51.487Z,11.90
2023-04-25T06:02:21.550Z,11.90
2023-04-25T06:04:52.401Z,11.90
2023-04-25T06:07:21.040Z,11.90
2023-04-25T06:09:49.434Z,11.80
2023-04-25T06:12:17.606Z,11.80
2023-04-25T06:14:46.133Z,11.80
2023-04-25T06:17:15.707Z,11.80
2023-04-25T06:19:43.857Z,11.80
2023-04-25T06:22:12.736Z,11.80
2023-04-25T06:24:42.876Z,11.80
2023-04-25T06:27:11.300Z,11.80
2023-04-25T06:29:40.949Z,11.70
2023-04-25T06:32:09.974Z,11.70
2023-04-25T06:34:39.837Z,11.70
2023-04-25T06:37:10.706Z,11.60
2023-04-25T06:39:41.117Z,11.60
2023-04-25T06:42:09.667Z,11.60
2023-04-25T06:44:52.100Z,11.50
2023-04-25T06:47:21.880Z,11.50
2023-04-25T06:49:52.547Z,11.40
2023-04-25T06:52:23.409Z,11.40
2023-04-25T06:54:54.440Z,11.30
2023-04-25T06:57:57.429Z,11.10
2023-04-25T07:00:44.057Z,11.00
2023-04-25T07:03:13.099Z,10.80
2023-04-25T07:05:43.088Z,10.70
2023-04-25T07:08:12.041Z,10.70
2023-04-25T07:10:40.378Z,10.80
2023-04-25T07:13:08.820Z,10.80
2023-04-25T07:15:37.248Z,10.70
2023-04-25T07:18:05.957Z,10.60
2023-04-25T07:20:34.203Z,10.80
2023-04-25T07:23:05.408Z,10.80
2023-04-25T07:25:33.945Z,11.00
2023-04-25T07:28:03.711Z,11.10
2023-04-25T07:30:32.449Z,11.10
2023-04-25T07:33:04.118Z,11.10
2023-04-25T07:35:33.693Z,11.10
2023-04-25T07:38:01.893Z,11.00
2023-04-25T07:40:32.460Z,10.90
2023-04-25T07:43:07.141Z,10.90
2023-04-25T07:45:51.325Z,10.90
2023-04-25T07:48:21.445Z,10.80
2023-04-25T07:50:52.532Z,10.80
2023-04-25T07:53:20.884Z,10.80
2023-04-25T07:55:57.661Z,10.90
2023-04-25T07:58:25.982Z,10.90
2023-04-25T08:01:00.011Z,10.90
2023-04-25T08:03:42.416Z,10.90
2023-04-25T08:06:17.787Z,10.80
2023-04-25T08:09:05.396Z,10.80
2023-04-25T08:11:41.709Z,10.80
2023-04-25T08:14:13.690Z,11.00
2023-04-25T08:16:44.398Z,11.20
2023-04-25T08:19:13.065Z,11.30
2023-04-25T08:21:41.409Z,11.30
2023-04-25T08:24:13.960Z,11.40
2023-04-25T08:26:44.734Z,11.60
2023-04-25T08:29:17.297Z,11.80
2023-04-25T08:31:46.469Z,12.00
2023-04-25T08:34:16.265Z,12.10
2023-04-25T08:36:47.721Z,12.00
2023-04-25T08:39:36.301Z,11.80
2023-04-25T08:42:24.032Z,11.70
2023-04-25T08:44:56.315Z,11.50
2023-04-25T08:47:29.890Z,11.50
2023-04-25T08:50:01.820Z,11.40
2023-04-25T08:52:34.840Z,11.50
2023-04-25T08:55:05.584Z,11.50
2023-04-25T08:57:37.638Z,11.60
2023-04-25T09:00:09.277Z,11.60
2023-04-25T09:02:41.121Z,11.50
2023-04-25T09:05:11.726Z,11.50
2023-04-25T09:07:40.051Z,11.40
2023-04-25T09:10:09.095Z,11.60
2023-04-25T09:12:40.730Z,11.50
2023-04-25T09:15:12.496Z,11.40
2023-04-25T09:18:07.429Z,11.10
2023-04-25T09:21:00.876Z,11.10
2023-04-25T09:23:31.920Z,11.10
2023-04-25T09:26:00.129Z,10.80
2023-04-25T09:28:31.088Z,10.70
2023-04-25T09:31:02.868Z,10.60
2023-04-25T09:33:38.904Z,10.70
2023-04-25T09:36:12.216Z,10.60
2023-04-25T09:38:52.945Z,10.60
2023-04-25T09:41:28.815Z,10.60
2023-04-25T09:44:03.315Z,10.70
2023-04-25T09:46:38.644Z,10.60
2023-04-25T09:49:17.164Z,10.50
2023-04-25T09:51:58.684Z,10.50
2023-04-25T09:54:31.009Z,10.60
2023-04-25T09:57:24.155Z,10.60
2023-04-25T09:59:56.842Z,10.60
2023-04-25T10:02:29.047Z,10.50
2023-04-25T10:05:07.913Z,10.50
2023-04-25T10:07:41.153Z,10.40
2023-04-25T10:10:19.593Z,10.50
2023-04-25T10:12:47.986Z,10.40
2023-04-25T10:15:17.715Z,10.40
2023-04-25T10:17:46.604Z,10.40
2023-04-25T10:20:15.510Z,10.50
2023-04-25T10:22:46.522Z,10.60
2023-04-25T10:25:15.121Z,10.70
2023-04-25T10:27:43.484Z,10.70
2023-04-25T10:30:16.821Z,10.80
2023-04-25T10:32:48.196Z,10.80
2023-04-25T10:35:18.172Z,10.90
2023-04-25T10:38:05.405Z,10.90
2023-04-25T10:40:34.035Z,10.80
2023-04-25T10:43:36.159Z,10.70
2023-04-25T10:46:06.783Z,10.80
2023-04-25T10:48:37.073Z,10.90
2023-04-25T10:51:12.426Z,10.90
2023-04-25T10:53:40.738Z,11.10
2023-04-25T10:56:14.554Z,11.10
2023-04-25T10:58:46.531Z,11.10
2023-04-25T11:01:15.700Z,10.90
2023-04-25T11:03:46.563Z,10.90
2023-04-25T11:06:24.535Z,10.90
2023-04-25T11:08:53.773Z,10.90
2023-04-25T11:11:22.313Z,10.80
2023-04-25T11:13:53.477Z,10.90
2023-04-25T11:18:54.349Z,10.80
2023-04-25T11:21:22.618Z,10.70
2023-04-25T11:23:51.006Z,10.60
2023-04-25T11:26:21.151Z,10.60
2023-04-25T11:28:51.171Z,10.50
2023-04-25T11:31:23.514Z,10.60
2023-04-25T11:33:55.093Z,10.80
2023-04-25T11:36:26.964Z,10.80
2023-04-25T11:38:56.273Z,10.80
2023-04-25T11:41:24.873Z,10.80
2023-04-25T11:43:55.718Z,10.90
2023-04-25T11:46:24.628Z,10.80
2023-04-25T11:48:57.983Z,11.00
2023-04-25T11:51:28.551Z,11.00
2023-04-25T11:53:56.982Z,11.20
2023-04-25T11:56:25.346Z,11.20
2023-04-25T11:58:57.829Z,11.20
2023-04-25T12:01:35.973Z,11.20
2023-04-25T12:04:16.857Z,11.20
2023-04-25T12:06:47.828Z,11.10
2023-04-25T12:09:22.344Z,11.10
2023-04-25T12:11:55.225Z,11.10
2023-04-25T12:14:25.240Z,11.20
2023-04-25T12:16:53.749Z,11.30
2023-04-25T12:19:23.849Z,11.30
2023-04-25T12:24:26.544Z,11.50
2023-04-25T12:27:01.148Z,11.30
2023-04-25T12:29:34.767Z,11.40
2023-04-25T12:32:07.271Z,11.40
2023-04-25T12:34:37.104Z,11.40
2023-04-25T12:37:06.180Z,11.50
2023-04-25T12:39:34.397Z,11.50
2023-04-25T12:42:03.353Z,11.50
2023-04-25T12:44:31.571Z,11.60
2023-04-25T12:47:01.037Z,11.50
2023-04-25T12:49:29.432Z,11.50
2023-04-25T12:51:59.272Z,11.60
2023-04-25T12:54:27.774Z,11.60
2023-04-25T12:56:56.064Z,11.60
2023-04-25T12:59:24.275Z,11.60
2023-04-25T13:01:53.445Z,11.50
2023-04-25T13:04:22.655Z,11.50
2023-04-25T13:06:51.140Z,11.30
2023-04-25T13:09:21.668Z,11.40
2023-04-25T13:11:49.869Z,11.30
2023-04-25T13:14:18.304Z,11.20
2023-04-25T13:16:46.935Z,11.20
2023-04-25T13:19:15.297Z,11.20
2023-04-25T13:21:43.574Z,11.30
2023-04-25T13:24:11.754Z,11.30
2023-04-25T13:26:41.417Z,11.30
2023-04-25T13:29:10.008Z,11.40
2023-04-25T13:31:38.282Z,11.30
2023-04-25T13:34:06.702Z,11.30
2023-04-25T13:36:35.004Z,11.30
2023-04-25T13:39:04.104Z,11.20
2023-04-25T13:41:32.512Z,11.10
2023-04-25T13:44:04.453Z,11.10
2023-04-25T13:46:47.041Z,11.10
2023-04-25T13:49:16.486Z,11.20
2023-04-25T13:51:46.735Z,11.30
2023-04-25T13:54:14.940Z,11.20
2023-04-25T13:56:43.701Z,11.20
2023-04-25T13:59:13.430Z,11.20
2023-04-25T14:01:45.061Z,11.30
2023-04-25T14:04:13.387Z,11.20
2023-04-25T14:06:43.631Z,11.20
2023-04-25T14:09:13.650Z,11.30
2023-04-25T14:11:41.934Z,11.20
2023-04-25T14:14:10.257Z,11.10
2023-04-25T14:16:39.974Z,11.00
2023-04-25T14:19:08.208Z,11.10
2023-04-25T14:21:36.405Z,11.00
2023-04-25T14:24:06.050Z,11.00
2023-04-25T14:26:36.467Z,11.10
2023-04-25T14:29:05.344Z,11.10
2023-04-25T14:31:33.615Z,11.10
2023-04-25T14:34:03.769Z,11.10
2023-04-25T14:36:33.058Z,11.00
2023-04-25T14:39:02.081Z,11.00
2023-04-25T14:41:30.369Z,10.80
2023-04-25T14:43:58.803Z,10.60
2023-04-25T14:46:27.714Z,10.60
2023-04-25T14:48:56.991Z,10.50
2023-04-25T14:51:27.533Z,10.60
2023-04-25T14:53:56.155Z,10.50
2023-04-25T14:56:24.509Z,10.40
2023-04-25T14:58:52.752Z,10.30
2023-04-25T15:01:22.874Z,10.30
2023-04-25T15:03:52.451Z,10.20
2023-04-25T15:06:20.957Z,10.20
2023-04-25T15:08:50.685Z,10.20
2023-04-25T15:11:19.064Z,10.00
2023-04-25T15:13:47.291Z,10.20
2023-04-25T15:16:15.542Z,10.10
2023-04-25T15:18:43.870Z,10.10
2023-04-25T15:21:14.086Z,10.10
2023-04-25T15:23:42.368Z,10.10
2023-04-25T15:26:12.105Z,10.20
2023-04-25T15:28:40.531Z,10.10
2023-04-25T15:31:09.347Z,10.20
2023-04-25T15:33:37.714Z,10.20
2023-04-25T15:36:06.560Z,10.20
2023-04-25T15:38:34.923Z,10.20
2023-04-25T15:41:04.812Z,10.10
2023-04-25T15:43:38.452Z,10.10
2023-04-25T15:46:07.181Z,10.00
2023-04-25T15:48:36.318Z,10.00
2023-04-25T15:51:04.764Z,9.90
2023-04-25T15:53:33.151Z,9.80
2023-04-25T15:56:01.455Z,9.80
2023-04-25T15:58:29.663Z,9.70
2023-04-25T16:00:59.919Z,9.50
2023-04-25T16:03:28.578Z,9.50
2023-04-25T16:05:57.123Z,9.50
2023-04-25T16:08:25.641Z,9.40
2023-04-25T16:10:54.179Z,9.40
2023-04-25T16:13:22.880Z,9.30
2023-04-25T16:15:51.188Z,9.30
2023-04-25T16:18:21.348Z,9.40
2023-04-25T16:20:50.199Z,9.40
2023-04-25T16:23:19.300Z,9.30
2023-04-25T16:25:47.842Z,9.30
2023-04-25T16:28:16.112Z,9.30
2023-04-25T16:30:44.627Z,9.30
2023-04-25T16:33:13.085Z,9.30
2023-04-25T16:35:42.710Z,9.20
2023-04-25T16:38:11.061Z,9.20
2023-04-25T16:40:39.306Z,9.10
2023-04-25T16:43:07.619Z,9.20
2023-04-25T16:45:36.056Z,9.10
2023-04-25T16:48:04.345Z,9.10
2023-04-25T16:50:33.048Z,9.10
2023-04-25T16:53:02.663Z,9.00
2023-04-25T16:55:33.802Z,8.90
2023-04-25T16:58:02.161Z,8.90
2023-04-25T17:00:30.741Z,8.90
2023-04-25T17:02:59.077Z,8.90
2023-04-25T17:05:27.441Z,9.00
2023-04-25T17:07:56.965Z,8.90
2023-04-25T17:10:26.896Z,8.80
2023-04-25T17:12:55.191Z,8.60
2023-04-25T17:15:23.695Z,8.60
2023-04-25T17:17:52.616Z,8.50
2023-04-25T17:20:21.812Z,8.50
2023-04-25T17:22:50.390Z,8.40
2023-04-25T17:25:18.609Z,8.30
2023-04-25T17:27:48.181Z,8.40
2023-04-25T17:30:17.393Z,8.20
2023-04-25T17:32:45.950Z,8.20
2023-04-25T17:35:15.756Z,8.20
2023-04-25T17:37:44.127Z,8.20
2023-04-25T17:40:13.064Z,8.20
2023-04-25T17:42:41.798Z,8.30
2023-04-25T17:45:13.126Z,8.20
2023-04-25T17:47:41.849Z,8.20
2023-04-25T17:50:10.524Z,8.30
2023-04-25T17:52:39.419Z,8.30
2023-04-25T17:55:08.522Z,8.30
2023-04-25T17:57:36.737Z,8.30
2023-04-25T18:00:07.840Z,8.30
2023-04-25T18:02:41.774Z,8.30
2023-04-25T18:05:10.991Z,8.20
2023-04-25T18:07:39.493Z,8.20
2023-04-25T18:10:10.234Z,8.20
2023-04-25T18:12:39.224Z,8.20
2023-04-25T18:15:09.328Z,8.20
2023-04-25T18:17:40.573Z,8.10
2023-04-25T18:20:15.701Z,8.10
2023-04-25T18:22:47.134Z,8.10
2023-04-25T18:25:15.609Z,8.10
2023-04-25T18:27:43.783Z,8.10
2023-04-25T18:30:13.987Z,8.10
2023-04-25T18:32:42.850Z,8.10
2023-04-25T18:35:12.779Z,8.10
2023-04-25T18:37:42.364Z,8.20
2023-04-25T18:40:14.121Z,8.00
2023-04-25T18:42:43.152Z,8.00
2023-04-25T18:45:12.385Z,8.00
2023-04-25T18:47:40.904Z,8.00
2023-04-25T18:50:10.258Z,7.90
2023-04-25T18:52:40.008Z,7.90
2023-04-25T18:55:09.321Z,7.90
2023-04-25T18:57:38.077Z,7.90
2023-04-25T19:00:07.638Z,7.90
2023-04-25T19:02:37.974Z,7.90
2023-04-25T19:05:07.481Z,8.00
2023-04-25T19:07:36.079Z,7.90
2023-04-25T19:10:06.562Z,7.90
2023-04-25T19:12:34.915Z,7.90
2023-04-25T19:15:03.225Z,7.90
2023-04-25T19:17:31.590Z,7.90
2023-04-25T19:19:59.854Z,8.00
2023-04-25T19:22:28.212Z,7.90
2023-04-25T19:25:09.259Z,7.80
2023-04-25T19:27:40.640Z,7.90
2023-04-25T19:30:10.820Z,7.90
2023-04-25T19:32:39.847Z,7.80
2023-04-25T19:35:11.692Z,7.90
2023-04-25T19:37:46.032Z,7.80
2023-04-25T19:40:16.130Z,7.80
2023-04-25T19:42:46.227Z,7.80
2023-04-25T19:45:14.437Z,7.70
2023-04-25T19:47:43.814Z,7.80
2023-04-25T19:50:12.425Z,7.80
2023-04-25T19:52:41.460Z,7.70
2023-04-25T19:55:11.154Z,7.80
2023-04-25T19:57:39.566Z,7.70
2023-04-25T20:00:12.930Z,7.70
2023-04-25T20:02:41.406Z,7.70
2023-04-25T20:05:10.639Z,7.60
2023-04-25T20:07:39.126Z,7.60
2023-04-25T20:10:08.992Z,7.60
2023-04-25T20:12:40.385Z,7.60
2023-04-25T20:15:12.802Z,7.60
2023-04-25T20:17:41.754Z,7.60
2023-04-25T20:20:12.136Z,7.60
2023-04-25T20:22:40.932Z,7.60
2023-04-25T20:25:13.898Z,7.60
2023-04-25T20:27:42.288Z,7.60
2023-04-25T20:30:13.711Z,7.60
2023-04-25T20:32:42.165Z,7.60
2023-04-25T20:35:11.129Z,7.60
2023-04-25T20:37:39.474Z,7.60
2023-04-25T20:40:09.780Z,7.60
2023-04-25T20:42:38.254Z,7.50
2023-04-25T20:45:12.547Z,7.60
2023-04-25T20:47:43.080Z,7.60
2023-04-25T20:50:12.263Z,7.70
2023-04-25T20:52:40.560Z,7.60
2023-04-25T20:55:10.922Z,7.60
2023-04-25T20:57:39.271Z,7.60
2023-04-25T21:00:16.302Z,7.60
2023-04-25T21:02:47.323Z,7.60
2023-04-25T21:05:15.855Z,7.60
2023-04-25T21:07:44.594Z,7.60
2023-04-25T21:10:13.025Z,7.60
2023-04-25T21:12:41.322Z,7.60
2023-04-25T21:15:11.394Z,7.60
2023-04-25T21:17:40.268Z,7.60
2023-04-25T21:20:11.553Z,7.60
2023-04-25T21:22:47.790Z,7.60
2023-04-25T21:25:19.912Z,7.60
2023-04-25T21:27:49.817Z,7.60
2023-04-25T21:30:20.514Z,7.60
2023-04-25T21:32:51.417Z,7.50
2023-04-25T21:35:23.050Z,7.70
2023-04-25T21:37:52.143Z,7.70
2023-04-25T21:40:20.905Z,7.60
2023-04-25T21:42:51.946Z,7.70
2023-04-25T21:45:22.016Z,7.70
2023-04-25T21:47:51.121Z,7.80
2023-04-25T21:50:21.074Z,7.70
2023-04-25T21:52:49.451Z,7.70
2023-04-25T21:55:19.805Z,7.70
2023-04-25T21:57:49.260Z,7.70
2023-04-25T22:00:27.530Z,7.60
2023-04-25T22:02:56.505Z,7.60
2023-04-25T22:05:28.293Z,7.60
2023-04-25T22:07:57.867Z,7.60
2023-04-25T22:10:26.757Z,7.50
2023-04-25T22:12:57.136Z,7.60
2023-04-25T22:15:25.384Z,7.60
2023-04-25T22:17:55.508Z,7.60
2023-04-25T22:20:26.588Z,7.60
2023-04-25T22:22:55.772Z,7.60
2023-04-25T22:25:24.093Z,7.60
2023-04-25T22:27:52.632Z,7.70
2023-04-25T22:30:21.778Z,7.70
2023-04-25T22:32:51.875Z,7.70
2023-04-25T22:35:20.641Z,7.70
2023-04-25T22:37:50.342Z,7.70
2023-04-25T22:40:21.312Z,7.70
2023-04-25T22:42:49.492Z,7.70
2023-04-25T22:45:17.838Z,7.80
2023-04-25T22:47:46.540Z,7.70
2023-04-25T22:50:16.791Z,7.70
2023-04-25T22:52:45.347Z,7.70
2023-04-25T22:55:15.332Z,7.70
2023-04-25T22:57:43.570Z,7.70
2023-04-25T23:00:16.687Z,7.60
2023-04-25T23:02:46.862Z,7.60
2023-04-25T23:05:16.276Z,7.50
2023-04-25T23:07:45.136Z,7.40
2023-04-25T23:10:14.928Z,7.40
2023-04-25T23:12:43.317Z,7.30
2023-04-25T23:15:13.247Z,7.30
2023-04-25T23:17:42.101Z,7.20
2023-04-25T23:20:12.234Z,7.10
2023-04-25T23:22:40.661Z,7.20
2023-04-25T23:25:10.454Z,7.30
2023-04-25T23:27:40.067Z,7.10
2023-04-25T23:30:10.192Z,7.10
2023-04-25T23:32:39.070Z,7.10
2023-04-25T23:35:08.235Z,7.00
2023-04-25T23:37:37.228Z,7.00
2023-04-25T23:40:10.074Z,6.90
2023-04-25T23:42:41.311Z,7.00
2023-04-25T23:45:11.048Z,7.10
2023-04-25T23:47:39.420Z,7.00
2023-04-25T23:50:09.038Z,7.00
2023-04-25T23:52:37.943Z,7.10
2023-04-25T23:55:07.130Z,7.00
2023-04-25T23:57:35.466Z,7.00
